sensor_id;sensor_type;location;lat;lon;timestamp;P1;durP1;ratioP1;P2;durP2;ratioP2
35897;SDS011;21997;47.118;15.346;2023-04-16T00:00:00;3.40;;;2.97;;
35897;SDS011;21997;47.118;15.346;2023-04-16T00:02:28;3.23;;;2.20;;
35897;SDS011;21997;47.118;15.346;2023-04-16T00:04:53;3.30;;;2.70;;
35897;SDS011;21997;47.118;15.346;2023-04-16T00:07:19;4.10;;;2.77;;
35897;SDS011;21997;47.118;15.346;2023-04-16T00:09:44;3.23;;;2.90;;
35897;SDS011;21997;47.118;15.346;2023-04-16T00:12:10;5.00;;;3.07;;
35897;SDS011;21997;47.118;15.346;2023-04-16T00:14:36;5.03;;;3.30;;
35897;SDS011;21997;47.118;15.346;2023-04-16T00:17:01;4.03;;;3.07;;
35897;SDS011;21997;47.118;15.346;2023-04-16T00:19:26;3.37;;;2.60;;
35897;SDS011;21997;47.118;15.346;2023-04-16T00:21:52;4.10;;;3.37;;
35897;SDS011;21997;47.118;15.346;2023-04-16T00:24:17;4.60;;;3.03;;
35897;SDS011;21997;47.118;15.346;2023-04-16T00:26:43;5.23;;;3.33;;
35897;SDS011;21997;47.118;15.346;2023-04-16T00:29:10;4.47;;;3.30;;
35897;SDS011;21997;47.118;15.346;2023-04-16T00:31:35;6.13;;;3.67;;
35897;SDS011;21997;47.118;15.346;2023-04-16T00:34:01;5.00;;;4.10;;
35897;SDS011;21997;47.118;15.346;2023-04-16T00:36:26;5.67;;;4.40;;
35897;SDS011;21997;47.118;15.346;2023-04-16T00:38:52;4.73;;;4.13;;
35897;SDS011;21997;47.118;15.346;2023-04-16T00:41:18;4.60;;;3.90;;
35897;SDS011;21997;47.118;15.346;2023-04-16T00:43:44;5.63;;;4.47;;
35897;SDS011;21997;47.118;15.346;2023-04-16T00:46:09;6.77;;;4.13;;
35897;SDS011;21997;47.118;15.346;2023-04-16T00:48:36;8.23;;;4.83;;
35897;SDS011;21997;47.118;15.346;2023-04-16T00:51:06;7.10;;;3.93;;
35897;SDS011;21997;47.118;15.346;2023-04-16T00:53:32;7.00;;;5.30;;
35897;SDS011;21997;47.118;15.346;2023-04-16T00:55:58;7.17;;;4.47;;
35897;SDS011;21997;47.118;15.346;2023-04-16T00:58:24;6.67;;;5.20;;
35897;SDS011;21997;47.118;15.346;2023-04-16T01:00:50;7.53;;;4.83;;
35897;SDS011;21997;47.118;15.346;2023-04-16T01:03:16;6.20;;;4.50;;
35897;SDS011;21997;47.118;15.346;2023-04-16T01:05:41;5.97;;;4.03;;
35897;SDS011;21997;47.118;15.346;2023-04-16T01:08:14;6.03;;;4.47;;
35897;SDS011;21997;47.118;15.346;2023-04-16T01:10:41;7.00;;;5.20;;
35897;SDS011;21997;47.118;15.346;2023-04-16T01:13:06;5.57;;;4.00;;
35897;SDS011;21997;47.118;15.346;2023-04-16T01:15:32;5.83;;;4.70;;
35897;SDS011;21997;47.118;15.346;2023-04-16T01:17:57;9.80;;;5.30;;
35897;SDS011;21997;47.118;15.346;2023-04-16T01:20:23;7.43;;;5.03;;
35897;SDS011;21997;47.118;15.346;2023-04-16T01:22:48;8.97;;;5.53;;
35897;SDS011;21997;47.118;15.346;2023-04-16T01:25:14;9.30;;;5.50;;
35897;SDS011;21997;47.118;15.346;2023-04-16T01:27:40;7.87;;;4.77;;
35897;SDS011;21997;47.118;15.346;2023-04-16T01:30:05;6.77;;;4.83;;
35897;SDS011;21997;47.118;15.346;2023-04-16T01:32:32;6.13;;;4.30;;
35897;SDS011;21997;47.118;15.346;2023-04-16T01:34:57;5.83;;;4.17;;
35897;SDS011;21997;47.118;15.346;2023-04-16T01:37:22;5.40;;;3.83;;
35897;SDS011;21997;47.118;15.346;2023-04-16T01:39:48;8.93;;;4.40;;
35897;SDS011;21997;47.118;15.346;2023-04-16T01:42:13;5.77;;;3.60;;
35897;SDS011;21997;47.118;15.346;2023-04-16T01:44:39;4.63;;;3.60;;
35897;SDS011;21997;47.118;15.346;2023-04-16T01:47:04;5.37;;;3.70;;
35897;SDS011;21997;47.118;15.346;2023-04-16T01:49:29;6.23;;;4.40;;
35897;SDS011;21997;47.118;15.346;2023-04-16T01:51:55;5.30;;;3.70;;
35897;SDS011;21997;47.118;15.346;2023-04-16T01:54:20;5.17;;;3.63;;
35897;SDS011;21997;47.118;15.346;2023-04-16T01:56:45;5.07;;;3.77;;
35897;SDS011;21997;47.118;15.346;2023-04-16T01:59:11;4.40;;;3.37;;
35897;SDS011;21997;47.118;15.346;2023-04-16T02:01:36;9.60;;;4.30;;
35897;SDS011;21997;47.118;15.346;2023-04-16T02:04:02;6.57;;;4.37;;
35897;SDS011;21997;47.118;15.346;2023-04-16T02:06:28;6.90;;;4.63;;
35897;SDS011;21997;47.118;15.346;2023-04-16T02:08:53;8.60;;;4.93;;
35897;SDS011;21997;47.118;15.346;2023-04-16T02:11:19;6.80;;;4.33;;
35897;SDS011;21997;47.118;15.346;2023-04-16T02:13:45;10.77;;;5.17;;
35897;SDS011;21997;47.118;15.346;2023-04-16T02:16:10;8.03;;;4.50;;
35897;SDS011;21997;47.118;15.346;2023-04-16T02:18:35;7.87;;;5.03;;
35897;SDS011;21997;47.118;15.346;2023-04-16T02:21:01;7.57;;;5.23;;
35897;SDS011;21997;47.118;15.346;2023-04-16T02:23:26;4.80;;;3.90;;
35897;SDS011;21997;47.118;15.346;2023-04-16T02:25:52;7.03;;;4.53;;
35897;SDS011;21997;47.118;15.346;2023-04-16T02:28:17;7.60;;;4.63;;
35897;SDS011;21997;47.118;15.346;2023-04-16T02:30:43;7.83;;;4.73;;
35897;SDS011;21997;47.118;15.346;2023-04-16T02:33:09;7.80;;;4.53;;
35897;SDS011;21997;47.118;15.346;2023-04-16T02:35:36;5.10;;;3.97;;
35897;SDS011;21997;47.118;15.346;2023-04-16T02:38:02;5.37;;;3.67;;
35897;SDS011;21997;47.118;15.346;2023-04-16T02:40:28;9.10;;;4.23;;
35897;SDS011;21997;47.118;15.346;2023-04-16T02:42:54;5.87;;;3.40;;
35897;SDS011;21997;47.118;15.346;2023-04-16T02:45:19;8.50;;;3.97;;
35897;SDS011;21997;47.118;15.346;2023-04-16T02:47:45;5.70;;;3.30;;
35897;SDS011;21997;47.118;15.346;2023-04-16T02:50:11;6.43;;;3.60;;
35897;SDS011;21997;47.118;15.346;2023-04-16T02:52:37;4.43;;;3.27;;
35897;SDS011;21997;47.118;15.346;2023-04-16T02:55:02;5.13;;;3.90;;
35897;SDS011;21997;47.118;15.346;2023-04-16T02:57:28;4.97;;;3.90;;
35897;SDS011;21997;47.118;15.346;2023-04-16T02:59:53;5.30;;;3.70;;
35897;SDS011;21997;47.118;15.346;2023-04-16T03:02:18;5.30;;;3.80;;
35897;SDS011;21997;47.118;15.346;2023-04-16T03:04:44;4.67;;;3.77;;
35897;SDS011;21997;47.118;15.346;2023-04-16T03:07:10;6.50;;;4.33;;
35897;SDS011;21997;47.118;15.346;2023-04-16T03:09:36;5.63;;;3.73;;
35897;SDS011;21997;47.118;15.346;2023-04-16T03:12:02;4.87;;;3.77;;
35897;SDS011;21997;47.118;15.346;2023-04-16T03:14:28;4.97;;;3.77;;
35897;SDS011;21997;47.118;15.346;2023-04-16T03:16:53;6.03;;;4.13;;
35897;SDS011;21997;47.118;15.346;2023-04-16T03:19:19;6.37;;;3.47;;
35897;SDS011;21997;47.118;15.346;2023-04-16T03:21:44;4.10;;;2.97;;
35897;SDS011;21997;47.118;15.346;2023-04-16T03:24:09;4.37;;;3.30;;
35897;SDS011;21997;47.118;15.346;2023-04-16T03:26:35;6.13;;;3.30;;
35897;SDS011;21997;47.118;15.346;2023-04-16T03:29:00;5.23;;;3.33;;
35897;SDS011;21997;47.118;15.346;2023-04-16T03:31:26;6.37;;;3.20;;
35897;SDS011;21997;47.118;15.346;2023-04-16T03:33:52;5.70;;;3.60;;
35897;SDS011;21997;47.118;15.346;2023-04-16T03:36:17;6.60;;;4.00;;
35897;SDS011;21997;47.118;15.346;2023-04-16T03:38:43;4.43;;;3.40;;
35897;SDS011;21997;47.118;15.346;2023-04-16T03:41:08;6.13;;;3.53;;
35897;SDS011;21997;47.118;15.346;2023-04-16T03:43:33;4.53;;;3.80;;
35897;SDS011;21997;47.118;15.346;2023-04-16T03:45:59;5.30;;;3.80;;
35897;SDS011;21997;47.118;15.346;2023-04-16T03:48:24;4.90;;;2.97;;
35897;SDS011;21997;47.118;15.346;2023-04-16T03:50:50;3.67;;;3.03;;
35897;SDS011;21997;47.118;15.346;2023-04-16T03:53:15;4.93;;;3.47;;
35897;SDS011;21997;47.118;15.346;2023-04-16T03:55:41;4.30;;;3.23;;
35897;SDS011;21997;47.118;15.346;2023-04-16T03:58:06;4.17;;;3.43;;
35897;SDS011;21997;47.118;15.346;2023-04-16T04:00:32;3.30;;;2.87;;
35897;SDS011;21997;47.118;15.346;2023-04-16T04:02:57;4.70;;;3.70;;
35897;SDS011;21997;47.118;15.346;2023-04-16T04:05:23;8.07;;;3.40;;
35897;SDS011;21997;47.118;15.346;2023-04-16T04:07:48;3.57;;;2.93;;
35897;SDS011;21997;47.118;15.346;2023-04-16T04:10:13;4.57;;;3.37;;
35897;SDS011;21997;47.118;15.346;2023-04-16T04:12:39;5.47;;;3.30;;
35897;SDS011;21997;47.118;15.346;2023-04-16T04:15:05;3.90;;;3.50;;
35897;SDS011;21997;47.118;15.346;2023-04-16T04:17:31;5.33;;;3.83;;
35897;SDS011;21997;47.118;15.346;2023-04-16T04:19:56;6.77;;;4.30;;
35897;SDS011;21997;47.118;15.346;2023-04-16T04:22:21;5.93;;;3.97;;
35897;SDS011;21997;47.118;15.346;2023-04-16T04:24:47;6.07;;;4.17;;
35897;SDS011;21997;47.118;15.346;2023-04-16T04:27:12;5.67;;;4.43;;
35897;SDS011;21997;47.118;15.346;2023-04-16T04:29:37;5.67;;;4.27;;
35897;SDS011;21997;47.118;15.346;2023-04-16T04:32:03;6.57;;;4.30;;
35897;SDS011;21997;47.118;15.346;2023-04-16T04:34:29;5.70;;;4.53;;
35897;SDS011;21997;47.118;15.346;2023-04-16T04:36:54;9.23;;;4.70;;
35897;SDS011;21997;47.118;15.346;2023-04-16T04:39:19;6.40;;;4.20;;
35897;SDS011;21997;47.118;15.346;2023-04-16T04:41:46;5.67;;;4.03;;
35897;SDS011;21997;47.118;15.346;2023-04-16T04:44:11;7.97;;;3.40;;
35897;SDS011;21997;47.118;15.346;2023-04-16T04:46:37;3.83;;;3.43;;
35897;SDS011;21997;47.118;15.346;2023-04-16T04:49:02;4.17;;;3.53;;
35897;SDS011;21997;47.118;15.346;2023-04-16T04:51:28;4.20;;;3.43;;
35897;SDS011;21997;47.118;15.346;2023-04-16T04:53:53;4.30;;;3.47;;
35897;SDS011;21997;47.118;15.346;2023-04-16T04:56:18;6.77;;;2.90;;
35897;SDS011;21997;47.118;15.346;2023-04-16T04:58:44;12.80;;;8.60;;
35897;SDS011;21997;47.118;15.346;2023-04-16T05:01:10;9.93;;;6.93;;
35897;SDS011;21997;47.118;15.346;2023-04-16T05:03:35;9.80;;;7.17;;
35897;SDS011;21997;47.118;15.346;2023-04-16T05:06:01;8.47;;;6.27;;
35897;SDS011;21997;47.118;15.346;2023-04-16T05:08:26;7.60;;;4.93;;
35897;SDS011;21997;47.118;15.346;2023-04-16T05:10:51;9.03;;;4.13;;
35897;SDS011;21997;47.118;15.346;2023-04-16T05:13:17;6.27;;;4.57;;
35897;SDS011;21997;47.118;15.346;2023-04-16T05:15:42;6.10;;;4.83;;
35897;SDS011;21997;47.118;15.346;2023-04-16T05:18:09;3.63;;;3.23;;
35897;SDS011;21997;47.118;15.346;2023-04-16T05:20:35;4.87;;;3.83;;
35897;SDS011;21997;47.118;15.346;2023-04-16T05:23:01;7.13;;;4.70;;
35897;SDS011;21997;47.118;15.346;2023-04-16T05:25:27;6.80;;;5.77;;
35897;SDS011;21997;47.118;15.346;2023-04-16T05:27:52;15.80;;;12.53;;
35897;SDS011;21997;47.118;15.346;2023-04-16T05:30:18;16.53;;;13.50;;
35897;SDS011;21997;47.118;15.346;2023-04-16T05:32:43;10.77;;;9.53;;
35897;SDS011;21997;47.118;15.346;2023-04-16T05:35:09;7.03;;;6.13;;
35897;SDS011;21997;47.118;15.346;2023-04-16T05:37:35;6.00;;;5.40;;
35897;SDS011;21997;47.118;15.346;2023-04-16T05:40:00;5.43;;;4.93;;
35897;SDS011;21997;47.118;15.346;2023-04-16T05:42:26;5.83;;;5.23;;
35897;SDS011;21997;47.118;15.346;2023-04-16T05:44:51;5.53;;;5.03;;
35897;SDS011;21997;47.118;15.346;2023-04-16T05:47:17;5.80;;;5.27;;
35897;SDS011;21997;47.118;15.346;2023-04-16T05:49:43;6.27;;;5.67;;
35897;SDS011;21997;47.118;15.346;2023-04-16T05:52:09;6.17;;;5.67;;
35897;SDS011;21997;47.118;15.346;2023-04-16T05:54:34;5.67;;;4.30;;
35897;SDS011;21997;47.118;15.346;2023-04-16T05:57:00;5.13;;;4.73;;
35897;SDS011;21997;47.118;15.346;2023-04-16T05:59:26;4.47;;;4.10;;
35897;SDS011;21997;47.118;15.346;2023-04-16T06:01:51;4.97;;;4.07;;
35897;SDS011;21997;47.118;15.346;2023-04-16T06:04:17;5.10;;;4.60;;
35897;SDS011;21997;47.118;15.346;2023-04-16T06:06:42;5.67;;;4.60;;
35897;SDS011;21997;47.118;15.346;2023-04-16T06:09:08;6.70;;;5.43;;
35897;SDS011;21997;47.118;15.346;2023-04-16T06:11:34;10.00;;;7.67;;
35897;SDS011;21997;47.118;15.346;2023-04-16T06:13:59;8.37;;;7.47;;
35897;SDS011;21997;47.118;15.346;2023-04-16T06:16:25;7.53;;;6.03;;
35897;SDS011;21997;47.118;15.346;2023-04-16T06:18:50;4.73;;;4.13;;
35897;SDS011;21997;47.118;15.346;2023-04-16T06:21:16;4.70;;;4.30;;
35897;SDS011;21997;47.118;15.346;2023-04-16T06:23:41;4.33;;;3.77;;
35897;SDS011;21997;47.118;15.346;2023-04-16T06:26:07;3.93;;;3.63;;
35897;SDS011;21997;47.118;15.346;2023-04-16T06:28:32;6.53;;;3.57;;
35897;SDS011;21997;47.118;15.346;2023-04-16T06:30:58;4.07;;;3.33;;
35897;SDS011;21997;47.118;15.346;2023-04-16T06:33:24;4.37;;;3.40;;
35897;SDS011;21997;47.118;15.346;2023-04-16T06:35:49;3.40;;;3.10;;
35897;SDS011;21997;47.118;15.346;2023-04-16T06:38:14;5.60;;;5.10;;
35897;SDS011;21997;47.118;15.346;2023-04-16T06:40:40;5.40;;;4.40;;
35897;SDS011;21997;47.118;15.346;2023-04-16T06:43:05;4.67;;;4.27;;
35897;SDS011;21997;47.118;15.346;2023-04-16T06:45:31;5.40;;;4.90;;
35897;SDS011;21997;47.118;15.346;2023-04-16T06:47:56;7.33;;;5.47;;
35897;SDS011;21997;47.118;15.346;2023-04-16T06:50:23;7.20;;;6.23;;
35897;SDS011;21997;47.118;15.346;2023-04-16T06:52:50;8.10;;;6.37;;
35897;SDS011;21997;47.118;15.346;2023-04-16T06:55:16;6.90;;;5.87;;
35897;SDS011;21997;47.118;15.346;2023-04-16T06:57:41;5.37;;;3.97;;
35897;SDS011;21997;47.118;15.346;2023-04-16T07:00:07;4.40;;;4.00;;
35897;SDS011;21997;47.118;15.346;2023-04-16T07:02:33;5.87;;;4.10;;
35897;SDS011;21997;47.118;15.346;2023-04-16T07:04:58;5.10;;;4.47;;
35897;SDS011;21997;47.118;15.346;2023-04-16T07:07:24;5.73;;;4.60;;
35897;SDS011;21997;47.118;15.346;2023-04-16T07:09:49;5.93;;;4.73;;
35897;SDS011;21997;47.118;15.346;2023-04-16T07:12:16;6.23;;;4.43;;
35897;SDS011;21997;47.118;15.346;2023-04-16T07:14:41;4.83;;;4.40;;
35897;SDS011;21997;47.118;15.346;2023-04-16T07:17:07;5.10;;;4.60;;
35897;SDS011;21997;47.118;15.346;2023-04-16T07:19:32;5.83;;;4.83;;
35897;SDS011;21997;47.118;15.346;2023-04-16T07:22:00;5.67;;;4.67;;
35897;SDS011;21997;47.118;15.346;2023-04-16T07:24:26;5.43;;;4.53;;
35897;SDS011;21997;47.118;15.346;2023-04-16T07:26:51;6.93;;;4.27;;
35897;SDS011;21997;47.118;15.346;2023-04-16T07:29:17;6.40;;;3.60;;
35897;SDS011;21997;47.118;15.346;2023-04-16T07:31:43;4.53;;;3.97;;
35897;SDS011;21997;47.118;15.346;2023-04-16T07:34:09;4.40;;;3.43;;
35897;SDS011;21997;47.118;15.346;2023-04-16T07:36:34;5.50;;;4.67;;
35897;SDS011;21997;47.118;15.346;2023-04-16T07:39:00;5.30;;;3.90;;
35897;SDS011;21997;47.118;15.346;2023-04-16T07:41:25;4.03;;;3.40;;
35897;SDS011;21997;47.118;15.346;2023-04-16T07:43:50;3.60;;;3.30;;
35897;SDS011;21997;47.118;15.346;2023-04-16T07:46:16;5.77;;;4.10;;
35897;SDS011;21997;47.118;15.346;2023-04-16T07:48:41;4.50;;;3.60;;
35897;SDS011;21997;47.118;15.346;2023-04-16T07:51:07;3.20;;;2.90;;
35897;SDS011;21997;47.118;15.346;2023-04-16T07:53:32;3.40;;;2.60;;
35897;SDS011;21997;47.118;15.346;2023-04-16T07:55:58;3.30;;;2.93;;
35897;SDS011;21997;47.118;15.346;2023-04-16T07:58:23;5.57;;;3.20;;
35897;SDS011;21997;47.118;15.346;2023-04-16T08:00:49;4.60;;;3.23;;
35897;SDS011;21997;47.118;15.346;2023-04-16T08:03:15;3.10;;;2.80;;
35897;SDS011;21997;47.118;15.346;2023-04-16T08:05:40;3.20;;;2.90;;
35897;SDS011;21997;47.118;15.346;2023-04-16T08:08:06;3.53;;;3.23;;
35897;SDS011;21997;47.118;15.346;2023-04-16T08:10:31;4.03;;;3.33;;
35897;SDS011;21997;47.118;15.346;2023-04-16T08:12:58;4.73;;;4.17;;
35897;SDS011;21997;47.118;15.346;2023-04-16T08:15:24;3.17;;;2.87;;
35897;SDS011;21997;47.118;15.346;2023-04-16T08:17:50;3.40;;;2.60;;
35897;SDS011;21997;47.118;15.346;2023-04-16T08:20:15;3.80;;;3.13;;
35897;SDS011;21997;47.118;15.346;2023-04-16T08:22:41;5.87;;;2.63;;
35897;SDS011;21997;47.118;15.346;2023-04-16T08:25:06;3.10;;;2.77;;
35897;SDS011;21997;47.118;15.346;2023-04-16T08:27:32;3.80;;;3.37;;
35897;SDS011;21997;47.118;15.346;2023-04-16T08:29:58;3.43;;;3.13;;
35897;SDS011;21997;47.118;15.346;2023-04-16T08:32:23;2.50;;;2.30;;
35897;SDS011;21997;47.118;15.346;2023-04-16T08:34:49;3.30;;;2.50;;
35897;SDS011;21997;47.118;15.346;2023-04-16T08:37:15;2.77;;;2.50;;
35897;SDS011;21997;47.118;15.346;2023-04-16T08:39:40;5.30;;;2.70;;
35897;SDS011;21997;47.118;15.346;2023-04-16T08:42:07;3.40;;;3.10;;
35897;SDS011;21997;47.118;15.346;2023-04-16T08:44:55;2.80;;;2.60;;
35897;SDS011;21997;47.118;15.346;2023-04-16T08:47:33;3.73;;;3.37;;
35897;SDS011;21997;47.118;15.346;2023-04-16T08:50:02;3.57;;;2.40;;
35897;SDS011;21997;47.118;15.346;2023-04-16T08:52:28;2.40;;;2.13;;
35897;SDS011;21997;47.118;15.346;2023-04-16T08:57:22;2.30;;;2.10;;
35897;SDS011;21997;47.118;15.346;2023-04-16T08:59:48;2.60;;;2.40;;
35897;SDS011;21997;47.118;15.346;2023-04-16T09:02:14;2.23;;;2.03;;
35897;SDS011;21997;47.118;15.346;2023-04-16T09:04:40;3.00;;;2.30;;
35897;SDS011;21997;47.118;15.346;2023-04-16T09:07:07;3.83;;;2.50;;
35897;SDS011;21997;47.118;15.346;2023-04-16T09:09:35;3.53;;;2.60;;
35897;SDS011;21997;47.118;15.346;2023-04-16T09:12:02;3.03;;;2.20;;
35897;SDS011;21997;47.118;15.346;2023-04-16T09:14:28;1.83;;;1.53;;
35897;SDS011;21997;47.118;15.346;2023-04-16T09:16:54;1.77;;;1.60;;
35897;SDS011;21997;47.118;15.346;2023-04-16T09:19:22;1.80;;;1.53;;
35897;SDS011;21997;47.118;15.346;2023-04-16T09:21:48;1.43;;;1.10;;
35897;SDS011;21997;47.118;15.346;2023-04-16T09:24:13;1.77;;;1.20;;
35897;SDS011;21997;47.118;15.346;2023-04-16T09:26:42;1.63;;;1.43;;
35897;SDS011;21997;47.118;15.346;2023-04-16T09:29:08;1.27;;;1.17;;
35897;SDS011;21997;47.118;15.346;2023-04-16T09:31:33;2.77;;;1.97;;
35897;SDS011;21997;47.118;15.346;2023-04-16T09:34:03;1.80;;;1.70;;
35897;SDS011;21997;47.118;15.346;2023-04-16T09:36:32;1.50;;;1.40;;
35897;SDS011;21997;47.118;15.346;2023-04-16T09:38:58;1.50;;;1.40;;
35897;SDS011;21997;47.118;15.346;2023-04-16T09:41:25;1.67;;;1.37;;
35897;SDS011;21997;47.118;15.346;2023-04-16T09:44:07;1.40;;;1.00;;
35897;SDS011;21997;47.118;15.346;2023-04-16T09:46:33;1.43;;;0.87;;
35897;SDS011;21997;47.118;15.346;2023-04-16T09:49:08;0.80;;;0.70;;
35897;SDS011;21997;47.118;15.346;2023-04-16T09:51:35;1.60;;;1.03;;
35897;SDS011;21997;47.118;15.346;2023-04-16T09:54:03;1.20;;;1.00;;
35897;SDS011;21997;47.118;15.346;2023-04-16T09:56:29;1.10;;;0.70;;
35897;SDS011;21997;47.118;15.346;2023-04-16T09:58:55;1.03;;;0.50;;
35897;SDS011;21997;47.118;15.346;2023-04-16T10:01:22;1.23;;;1.00;;
35897;SDS011;21997;47.118;15.346;2023-04-16T10:03:48;1.60;;;1.30;;
35897;SDS011;21997;47.118;15.346;2023-04-16T10:06:17;2.60;;;2.00;;
35897;SDS011;21997;47.118;15.346;2023-04-16T10:08:50;1.67;;;1.20;;
35897;SDS011;21997;47.118;15.346;2023-04-16T10:11:17;2.37;;;1.43;;
35897;SDS011;21997;47.118;15.346;2023-04-16T10:13:45;4.60;;;2.03;;
35897;SDS011;21997;47.118;15.346;2023-04-16T10:16:11;1.57;;;1.20;;
35897;SDS011;21997;47.118;15.346;2023-04-16T10:18:40;1.20;;;1.10;;
35897;SDS011;21997;47.118;15.346;2023-04-16T10:21:07;1.07;;;0.97;;
35897;SDS011;21997;47.118;15.346;2023-04-16T10:23:36;0.70;;;0.70;;
35897;SDS011;21997;47.118;15.346;2023-04-16T10:26:05;1.43;;;0.77;;
35897;SDS011;21997;47.118;15.346;2023-04-16T10:28:33;3.27;;;2.70;;
35897;SDS011;21997;47.118;15.346;2023-04-16T10:31:00;1.83;;;1.70;;
35897;SDS011;21997;47.118;15.346;2023-04-16T10:33:30;2.27;;;1.73;;
35897;SDS011;21997;47.118;15.346;2023-04-16T10:38:57;3.87;;;1.57;;
35897;SDS011;21997;47.118;15.346;2023-04-16T10:41:25;2.63;;;1.80;;
35897;SDS011;21997;47.118;15.346;2023-04-16T10:43:51;2.60;;;1.70;;
35897;SDS011;21997;47.118;15.346;2023-04-16T10:46:18;5.33;;;2.90;;
35897;SDS011;21997;47.118;15.346;2023-04-16T10:48:43;2.97;;;2.50;;
35897;SDS011;21997;47.118;15.346;2023-04-16T10:51:21;1.50;;;1.40;;
35897;SDS011;21997;47.118;15.346;2023-04-16T10:53:48;1.57;;;1.17;;
35897;SDS011;21997;47.118;15.346;2023-04-16T10:56:14;5.70;;;4.07;;
35897;SDS011;21997;47.118;15.346;2023-04-16T10:58:41;1.70;;;1.40;;
35897;SDS011;21997;47.118;15.346;2023-04-16T11:01:10;1.67;;;0.97;;
35897;SDS011;21997;47.118;15.346;2023-04-16T11:03:46;1.27;;;0.77;;
35897;SDS011;21997;47.118;15.346;2023-04-16T11:06:16;0.60;;;0.60;;
35897;SDS011;21997;47.118;15.346;2023-04-16T11:08:49;0.60;;;0.50;;
35897;SDS011;21997;47.118;15.346;2023-04-16T11:11:15;0.60;;;0.60;;
35897;SDS011;21997;47.118;15.346;2023-04-16T11:13:42;1.13;;;0.93;;
35897;SDS011;21997;47.118;15.346;2023-04-16T11:16:09;1.37;;;0.70;;
35897;SDS011;21997;47.118;15.346;2023-04-16T11:18:35;0.50;;;0.50;;
35897;SDS011;21997;47.118;15.346;2023-04-16T11:21:06;0.50;;;0.50;;
35897;SDS011;21997;47.118;15.346;2023-04-16T11:23:44;1.17;;;0.65;;
35897;SDS011;21997;47.118;15.346;2023-04-16T11:26:21;0.80;;;0.63;;
35897;SDS011;21997;47.118;15.346;2023-04-16T11:28:47;2.25;;;0.80;;
35897;SDS011;21997;47.118;15.346;2023-04-16T11:31:13;0.67;;;0.67;;
35897;SDS011;21997;47.118;15.346;2023-04-16T11:33:38;1.50;;;1.17;;
35897;SDS011;21997;47.118;15.346;2023-04-16T11:36:03;3.40;;;2.80;;
35897;SDS011;21997;47.118;15.346;2023-04-16T11:38:36;0.70;;;0.70;;
35897;SDS011;21997;47.118;15.346;2023-04-16T11:41:02;0.30;;;0.30;;
35897;SDS011;21997;47.118;15.346;2023-04-16T11:43:28;0.60;;;0.60;;
35897;SDS011;21997;47.118;15.346;2023-04-16T11:46:00;0.67;;;0.60;;
35897;SDS011;21997;47.118;15.346;2023-04-16T11:48:44;0.50;;;0.40;;
35897;SDS011;21997;47.118;15.346;2023-04-16T11:51:12;1.90;;;1.40;;
35897;SDS011;21997;47.118;15.346;2023-04-16T11:53:45;1.30;;;0.90;;
35897;SDS011;21997;47.118;15.346;2023-04-16T11:56:11;0.90;;;0.70;;
35897;SDS011;21997;47.118;15.346;2023-04-16T11:58:36;0.60;;;0.50;;
35897;SDS011;21997;47.118;15.346;2023-04-16T12:01:02;1.53;;;0.77;;
35897;SDS011;21997;47.118;15.346;2023-04-16T12:03:38;5.83;;;3.30;;
35897;SDS011;21997;47.118;15.346;2023-04-16T12:06:10;1.73;;;0.70;;
35897;SDS011;21997;47.118;15.346;2023-04-16T12:08:36;0.57;;;0.50;;
35897;SDS011;21997;47.118;15.346;2023-04-16T12:11:01;0.63;;;0.50;;
35897;SDS011;21997;47.118;15.346;2023-04-16T12:13:26;0.40;;;0.40;;
35897;SDS011;21997;47.118;15.346;2023-04-16T12:15:53;0.20;;;0.20;;
35897;SDS011;21997;47.118;15.346;2023-04-16T12:18:23;0.20;;;0.20;;
35897;SDS011;21997;47.118;15.346;2023-04-16T12:20:52;0.20;;;0.20;;
35897;SDS011;21997;47.118;15.346;2023-04-16T12:23:21;0.40;;;0.30;;
35897;SDS011;21997;47.118;15.346;2023-04-16T12:25:51;0.70;;;0.40;;
35897;SDS011;21997;47.118;15.346;2023-04-16T12:28:27;0.50;;;0.50;;
35897;SDS011;21997;47.118;15.346;2023-04-16T12:30:56;0.20;;;0.20;;
35897;SDS011;21997;47.118;15.346;2023-04-16T12:33:21;1.10;;;0.80;;
35897;SDS011;21997;47.118;15.346;2023-04-16T12:35:47;0.40;;;0.33;;
35897;SDS011;21997;47.118;15.346;2023-04-16T12:38:12;0.60;;;0.40;;
35897;SDS011;21997;47.118;15.346;2023-04-16T12:40:39;0.30;;;0.30;;
35897;SDS011;21997;47.118;15.346;2023-04-16T12:43:05;0.30;;;0.30;;
35897;SDS011;21997;47.118;15.346;2023-04-16T12:45:30;0.40;;;0.40;;
35897;SDS011;21997;47.118;15.346;2023-04-16T12:47:56;0.77;;;0.40;;
35897;SDS011;21997;47.118;15.346;2023-04-16T12:50:21;0.30;;;0.30;;
35897;SDS011;21997;47.118;15.346;2023-04-16T12:52:47;0.17;;;0.17;;
35897;SDS011;21997;47.118;15.346;2023-04-16T12:55:13;0.60;;;0.20;;
35897;SDS011;21997;47.118;15.346;2023-04-16T12:57:38;0.40;;;0.40;;
35897;SDS011;21997;47.118;15.346;2023-04-16T13:00:04;0.57;;;0.50;;
35897;SDS011;21997;47.118;15.346;2023-04-16T13:02:30;0.30;;;0.30;;
35897;SDS011;21997;47.118;15.346;2023-04-16T13:04:56;4.30;;;0.90;;
35897;SDS011;21997;47.118;15.346;2023-04-16T13:07:22;0.53;;;0.30;;
35897;SDS011;21997;47.118;15.346;2023-04-16T13:09:48;0.23;;;0.20;;
35897;SDS011;21997;47.118;15.346;2023-04-16T13:12:13;0.50;;;0.40;;
35897;SDS011;21997;47.118;15.346;2023-04-16T13:14:39;0.73;;;0.43;;
35897;SDS011;21997;47.118;15.346;2023-04-16T13:17:04;0.80;;;0.60;;
35897;SDS011;21997;47.118;15.346;2023-04-16T13:19:30;0.80;;;0.67;;
35897;SDS011;21997;47.118;15.346;2023-04-16T13:21:55;0.30;;;0.30;;
35897;SDS011;21997;47.118;15.346;2023-04-16T13:24:21;0.60;;;0.40;;
35897;SDS011;21997;47.118;15.346;2023-04-16T13:26:47;0.93;;;0.40;;
35897;SDS011;21997;47.118;15.346;2023-04-16T13:29:13;0.20;;;0.20;;
35897;SDS011;21997;47.118;15.346;2023-04-16T13:31:38;0.87;;;0.30;;
35897;SDS011;21997;47.118;15.346;2023-04-16T13:34:04;0.27;;;0.27;;
35897;SDS011;21997;47.118;15.346;2023-04-16T13:36:30;0.20;;;0.20;;
35897;SDS011;21997;47.118;15.346;2023-04-16T13:38:56;1.60;;;0.40;;
35897;SDS011;21997;47.118;15.346;2023-04-16T13:41:22;0.40;;;0.40;;
35897;SDS011;21997;47.118;15.346;2023-04-16T13:43:48;1.27;;;0.30;;
35897;SDS011;21997;47.118;15.346;2023-04-16T13:46:13;0.30;;;0.20;;
35897;SDS011;21997;47.118;15.346;2023-04-16T13:48:38;0.47;;;0.30;;
35897;SDS011;21997;47.118;15.346;2023-04-16T13:51:04;0.30;;;0.30;;
35897;SDS011;21997;47.118;15.346;2023-04-16T13:53:29;0.20;;;0.20;;
35897;SDS011;21997;47.118;15.346;2023-04-16T13:55:55;0.50;;;0.30;;
35897;SDS011;21997;47.118;15.346;2023-04-16T13:58:21;0.50;;;0.50;;
35897;SDS011;21997;47.118;15.346;2023-04-16T14:00:46;0.60;;;0.40;;
35897;SDS011;21997;47.118;15.346;2023-04-16T14:03:12;0.20;;;0.20;;
35897;SDS011;21997;47.118;15.346;2023-04-16T14:05:37;3.23;;;0.30;;
35897;SDS011;21997;47.118;15.346;2023-04-16T14:08:03;0.50;;;0.50;;
35897;SDS011;21997;47.118;15.346;2023-04-16T14:10:29;0.33;;;0.30;;
35897;SDS011;21997;47.118;15.346;2023-04-16T14:12:56;0.50;;;0.50;;
35897;SDS011;21997;47.118;15.346;2023-04-16T14:15:22;0.40;;;0.40;;
35897;SDS011;21997;47.118;15.346;2023-04-16T14:17:50;3.93;;;3.13;;
35897;SDS011;21997;47.118;15.346;2023-04-16T14:20:15;1.33;;;0.90;;
35897;SDS011;21997;47.118;15.346;2023-04-16T14:22:41;2.53;;;2.17;;
35897;SDS011;21997;47.118;15.346;2023-04-16T14:25:07;1.40;;;0.87;;
35897;SDS011;21997;47.118;15.346;2023-04-16T14:27:33;0.53;;;0.50;;
35897;SDS011;21997;47.118;15.346;2023-04-16T14:29:59;0.50;;;0.50;;
35897;SDS011;21997;47.118;15.346;2023-04-16T14:32:25;0.77;;;0.60;;